Time;durP1;ratioP1;P1;durP2;ratioP2;P2;SDS_P1;SDS_P2;PMS_P1;PMS_P2;Temp;Humidity;BMP_temperature;BMP_pressure;BME280_temperature;BME280_humidity;BME280_pressure;Samples;Min_cycle;Max_cycle;Signal;HPM_P1;HPM_P2
2023/01/30 00:01:26;;;;;;;;;;;;;;;8.51;100.00;99266.69;5027653;28;19924;-85
2023/01/30 00:03:51;;;;;;;;;;;;;;;8.04;100.00;99284.13;5030713;28;20366;-86
2023/01/30 00:06:18;;;;;;;;;;;;;;;8.09;100.00;99268.72;5034847;28;19913;-84
2023/01/30 00:08:43;;;;;;;;;;;;;;;8.06;100.00;99264.69;5040263;28;19912;-85
2023/01/30 00:11:11;;;;;;;;;;;;;;;7.84;100.00;99269.66;5039591;28;19996;-84
2023/01/30 00:13:37;;;;;;;;;;;;;;;8.09;100.00;99263.50;5039253;28;19917;-83
2023/01/30 00:16:03;;;;;;;;;;;;;;;7.98;100.00;99278.63;5038223;28;19949;-84
2023/01/30 00:18:29;;;;;;;;;;;;;;;7.92;100.00;99270.63;5030751;28;19963;-85
2023/01/30 00:20:55;;;;;;;;;;;;;;;8.04;100.00;99271.06;5026892;28;19955;-85
2023/01/30 00:23:21;;;;;;;;;;;;;;;8.19;100.00;99268.50;5029617;28;19971;-84
2023/01/30 00:25:46;;;;;;;;;;;;;;;7.81;100.00;99277.06;5039129;28;19913;-86
2023/01/30 00:28:11;;;;;;;;;;;;;;;8.05;100.00;99275.31;5025081;28;20410;-84
2023/01/30 00:30:37;;;;;;;;;;;;;;;8.26;100.00;99264.22;5039348;28;20196;-84
2023/01/30 00:33:02;;;;;;;;;;;;;;;8.10;100.00;99255.50;5038681;28;20001;-84
2023/01/30 00:35:28;;;;;;;;;;;;;;;8.22;100.00;99261.16;5013218;28;19912;-84
2023/01/30 00:37:57;;;;;;;;;;;;;;;8.00;100.00;99270.56;5038897;28;20310;-85
2023/01/30 00:40:23;;;;;;;;;;;;;;;7.99;100.00;99269.78;5038766;28;20276;-84
2023/01/30 00:48:30;;;;;;;;;;;;;;;8.41;100.00;99262.47;4959010;28;19914;-84
2023/01/30 00:50:55;;;;;;;;;;;;;;;8.33;100.00;99266.94;5030848;28;19963;-84
2023/01/30 00:53:21;;;;;;;;;;;;;;;8.74;100.00;99263.25;5040034;28;20263;-85
2023/01/30 00:55:46;;;;;;;;;;;;;;;8.42;100.00;99273.75;5025966;28;19917;-83
2023/01/30 00:58:12;;;;;;;;;;;;;;;8.37;100.00;99271.66;5039341;28;19917;-85
2023/01/30 01:00:38;;;;;;;;;;;;;;;8.25;100.00;99278.28;5010900;28;19912;-86
2023/01/30 01:03:04;;;;;;;;;;;;;;;8.39;100.00;99268.88;5038972;28;19978;-84
2023/01/30 01:05:30;;;;;;;;;;;;;;;8.48;100.00;99280.09;5034137;28;19924;-84
2023/01/30 01:07:55;;;;;;;;;;;;;;;8.35;100.00;99293.75;5039071;28;20378;-85
2023/01/30 01:10:21;;;;;;;;;;;;;;;8.71;100.00;99294.00;5038781;28;19920;-85
2023/01/30 01:12:48;;;;;;;;;;;;;;;8.65;100.00;99294.72;5039392;28;19913;-86
2023/01/30 01:15:14;;;;;;;;;;;;;;;8.86;100.00;99293.25;5037062;28;19913;-85
2023/01/30 01:17:40;;;;;;;;;;;;;;;8.64;100.00;99290.44;5026923;28;19928;-84
2023/01/30 01:20:07;;;;;;;;;;;;;;;8.31;100.00;99308.97;5028781;28;19967;-84
2023/01/30 01:22:33;;;;;;;;;;;;;;;8.35;100.00;99289.34;5011869;28;20028;-84
2023/01/30 01:24:58;;;;;;;;;;;;;;;8.10;100.00;99289.50;5035453;28;19995;-84
2023/01/30 01:27:23;;;;;;;;;;;;;;;8.01;100.00;99295.72;5035492;28;19972;-83
2023/01/30 01:29:49;;;;;;;;;;;;;;;8.03;100.00;99280.69;5034971;28;19988;-84
2023/01/30 01:32:16;;;;;;;;;;;;;;;7.82;100.00;99287.31;5025978;28;19913;-83
2023/01/30 01:34:41;;;;;;;;;;;;;;;7.86;100.00;99278.19;5024598;28;20305;-84
2023/01/30 01:37:07;;;;;;;;;;;;;;;7.83;100.00;99275.88;5034200;28;19912;-83
2023/01/30 01:42:16;;;;;;;;;;;;;;;7.87;100.00;99276.38;5034558;28;19912;-83
2023/01/30 01:45:00;;;;;;;;;;;;;;;8.00;100.00;99275.81;5022795;28;19917;-85
2023/01/30 01:47:26;;;;;;;;;;;;;;;7.89;100.00;99279.63;5016166;28;20333;-83
2023/01/30 01:49:52;;;;;;;;;;;;;;;7.88;100.00;99274.59;5023796;28;19996;-85
2023/01/30 01:52:21;;;;;;;;;;;;;;;7.60;100.00;99275.00;5033240;28;19916;-84
2023/01/30 01:55:07;;;;;;;;;;;;;;;7.63;100.00;99290.34;5034830;28;19923;-84
2023/01/30 01:57:54;;;;;;;;;;;;;;;7.48;100.00;99298.91;5034312;28;19962;-84
2023/01/30 02:00:22;;;;;;;;;;;;;;;7.61;100.00;99289.69;5034590;28;19917;-84
2023/01/30 02:02:57;;;;;;;;;;;;;;;7.54;100.00;99292.16;5006330;28;19935;-84
2023/01/30 02:05:29;;;;;;;;;;;;;;;7.37;100.00;99301.84;5034037;28;20290;-82
2023/01/30 02:08:21;;;;;;;;;;;;;;;7.34;100.00;99305.59;5033360;28;20374;-82
2023/01/30 02:11:05;;;;;;;;;;;;;;;7.49;100.00;99305.75;5030502;28;19917;-83
2023/01/30 02:13:31;;;;;;;;;;;;;;;7.34;100.00;99296.97;5023008;28;19917;-84
2023/01/30 02:15:57;;;;;;;;;;;;;;;7.27;100.00;99286.38;5033998;28;19920;-85
2023/01/30 02:18:23;;;;;;;;;;;;;;;7.33;100.00;99316.22;5034291;28;19948;-84
2023/01/30 02:21:21;;;;;;;;;;;;;;;7.47;100.00;99302.50;5025067;28;19914;-85
2023/01/30 02:23:54;;;;;;;;;;;;;;;7.20;100.00;99303.69;5000938;28;19925;-85
2023/01/30 02:26:46;;;;;;;;;;;;;;;7.23;100.00;99296.31;5010794;28;20313;-84
2023/01/30 02:29:26;;;;;;;;;;;;;;;7.78;100.00;99278.19;5009894;28;20062;-84
2023/01/30 02:31:54;;;;;;;;;;;;;;;7.47;100.00;99281.59;5032483;28;21089;-83
2023/01/30 02:34:29;;;;;;;;;;;;;;;7.45;100.00;99286.16;5034136;28;20290;-84
2023/01/30 02:37:04;;;;;;;;;;;;;;;7.66;100.00;99283.00;5010315;28;20525;-84
2023/01/30 02:39:50;;;;;;;;;;;;;;;7.71;100.00;99308.63;5033312;28;19913;-83
2023/01/30 02:42:23;;;;;;;;;;;;;;;7.35;100.00;99293.38;5032735;28;19913;-83
2023/01/30 02:44:54;;;;;;;;;;;;;;;7.58;100.00;99294.28;5009944;28;19917;-82
2023/01/30 02:47:24;;;;;;;;;;;;;;;7.67;100.00;99320.41;5019918;28;19963;-83
2023/01/30 02:50:10;;;;;;;;;;;;;;;7.63;100.00;99306.03;5031837;28;19920;-83
2023/01/30 02:52:35;;;;;;;;;;;;;;;7.56;100.00;99311.94;5032477;28;19917;-83
2023/01/30 02:55:05;;;;;;;;;;;;;;;7.74;100.00;99323.94;5032925;28;20402;-85
2023/01/30 02:57:31;;;;;;;;;;;;;;;8.03;100.00;99332.97;5023251;28;19916;-83
2023/01/30 02:59:58;;;;;;;;;;;;;;;7.72;100.00;99331.94;5024966;28;19935;-83
2023/01/30 03:02:42;;;;;;;;;;;;;;;7.84;100.00;99329.78;5034106;28;20004;-86
2023/01/30 03:05:20;;;;;;;;;;;;;;;7.57;100.00;99339.69;5031275;28;19994;-83
2023/01/30 03:08:02;;;;;;;;;;;;;;;7.94;100.00;99328.78;5006401;28;20334;-83
2023/01/30 03:10:57;;;;;;;;;;;;;;;7.88;100.00;99342.53;5031817;28;19920;-83
2023/01/30 03:13:38;;;;;;;;;;;;;;;7.56;100.00;99353.72;5021121;28;19916;-82
2023/01/30 03:16:11;;;;;;;;;;;;;;;7.75;100.00;99341.25;5023008;28;19913;-83
2023/01/30 03:18:41;;;;;;;;;;;;;;;7.70;100.00;99352.22;5031437;28;20005;-83
2023/01/30 03:21:07;;;;;;;;;;;;;;;7.63;100.00;99351.25;5022733;28;19964;-85
2023/01/30 03:23:32;;;;;;;;;;;;;;;7.72;100.00;99347.63;5032621;28;19956;-85
2023/01/30 03:25:58;;;;;;;;;;;;;;;7.83;100.00;99343.84;5008735;28;20371;-84
2023/01/30 03:28:25;;;;;;;;;;;;;;;7.97;100.00;99354.56;5032763;28;19995;-82
2023/01/30 03:30:50;;;;;;;;;;;;;;;7.86;100.00;99359.19;5032659;28;19917;-84
2023/01/30 03:33:16;;;;;;;;;;;;;;;7.95;100.00;99386.09;5033328;28;19947;-81
2023/01/30 03:35:42;;;;;;;;;;;;;;;8.20;100.00;99369.50;5029822;28;19958;-83
2023/01/30 03:38:08;;;;;;;;;;;;;;;7.97;100.00;99368.47;5024279;28;19912;-85
2023/01/30 03:40:34;;;;;;;;;;;;;;;7.97;100.00;99385.94;5032998;28;20058;-83
2023/01/30 03:42:59;;;;;;;;;;;;;;;8.32;100.00;99383.84;5024317;28;20379;-84
2023/01/30 03:45:25;;;;;;;;;;;;;;;8.69;100.00;99390.22;5022346;28;19917;-84
2023/01/30 03:47:50;;;;;;;;;;;;;;;8.36;100.00;99385.13;5021286;28;19924;-85
2023/01/30 03:50:16;;;;;;;;;;;;;;;8.24;100.00;99381.25;5032866;28;19913;-84
2023/01/30 03:52:42;;;;;;;;;;;;;;;8.25;100.00;99368.00;5033578;28;19913;-84
2023/01/30 03:55:09;;;;;;;;;;;;;;;8.07;100.00;99396.19;5032835;28;20394;-84
2023/01/30 03:57:34;;;;;;;;;;;;;;;8.31;100.00;99392.69;5031823;28;19913;-83
2023/01/30 04:00:01;;;;;;;;;;;;;;;8.36;100.00;99374.66;5024128;28;19932;-85
2023/01/30 04:02:37;;;;;;;;;;;;;;;8.56;100.00;99376.88;5032517;28;19917;-84
2023/01/30 04:05:10;;;;;;;;;;;;;;;8.03;100.00;99380.03;5028842;28;19917;-85
2023/01/30 04:07:43;;;;;;;;;;;;;;;8.10;100.00;99375.78;5030314;28;20020;-85
2023/01/30 04:10:09;;;;;;;;;;;;;;;8.14;100.00;99387.50;5004846;28;19919;-85
2023/01/30 04:12:35;;;;;;;;;;;;;;;8.27;100.00;99392.19;5032388;28;19913;-84
2023/01/30 04:15:08;;;;;;;;;;;;;;;8.68;100.00;99380.72;5026854;28;19920;-85
2023/01/30 04:17:43;;;;;;;;;;;;;;;8.62;100.00;99399.72;5031978;28;19909;-83
2023/01/30 04:20:09;;;;;;;;;;;;;;;8.63;100.00;99396.13;5025186;28;19913;-83
2023/01/30 04:22:38;;;;;;;;;;;;;;;8.50;100.00;99401.13;5022397;28;19917;-83
2023/01/30 04:25:04;;;;;;;;;;;;;;;8.60;100.00;99400.91;5031533;28;20443;-83
2023/01/30 04:27:29;;;;;;;;;;;;;;;8.48;100.00;99406.47;5021536;28;19921;-84
2023/01/30 04:29:55;;;;;;;;;;;;;;;8.88;100.00;99418.72;5032039;28;19948;-83
2023/01/30 04:32:20;;;;;;;;;;;;;;;8.38;100.00;99426.81;5018359;28;19948;-83
2023/01/30 04:34:46;;;;;;;;;;;;;;;8.39;100.00;99429.25;5023275;28;19917;-83
2023/01/30 04:37:12;;;;;;;;;;;;;;;8.62;100.00;99425.88;5003419;28;20003;-83
2023/01/30 04:39:37;;;;;;;;;;;;;;;8.66;100.00;99428.97;5022012;28;19935;-84
2023/01/30 04:42:02;;;;;;;;;;;;;;;8.93;100.00;99426.84;5031754;28;19971;-82
2023/01/30 04:44:28;;;;;;;;;;;;;;;8.39;100.00;99418.78;5030190;28;19979;-82
2023/01/30 04:46:54;;;;;;;;;;;;;;;8.13;100.00;99448.63;5018905;28;19917;-82
2023/01/30 04:49:29;;;;;;;;;;;;;;;8.28;100.00;99434.88;5030231;28;19909;-82
2023/01/30 04:51:55;;;;;;;;;;;;;;;8.19;100.00;99439.31;5030453;28;19940;-81
2023/01/30 04:54:20;;;;;;;;;;;;;;;8.29;100.00;99433.88;5034341;28;20015;-82
2023/01/30 04:56:46;;;;;;;;;;;;;;;8.54;100.00;99431.19;5033360;28;19924;-81
2023/01/30 04:59:11;;;;;;;;;;;;;;;8.37;100.00;99427.81;5022438;28;19913;-82
2023/01/30 05:01:39;;;;;;;;;;;;;;;8.37;100.00;99440.88;5034744;28;19959;-81
2023/01/30 05:04:05;;;;;;;;;;;;;;;8.56;100.00;99443.13;5034921;28;19917;-81
2023/01/30 05:06:31;;;;;;;;;;;;;;;8.60;100.00;99442.75;5035005;28;19921;-83
2023/01/30 05:08:57;;;;;;;;;;;;;;;8.85;100.00;99431.16;5024153;28;19958;-82
2023/01/30 05:11:24;;;;;;;;;;;;;;;8.71;100.00;99453.66;5034968;28;19988;-83
2023/01/30 05:13:49;;;;;;;;;;;;;;;8.43;100.00;99461.91;5034652;28;20371;-82
2023/01/30 05:16:15;;;;;;;;;;;;;;;7.93;100.00;99444.78;5022769;28;19928;-82
2023/01/30 05:18:42;;;;;;;;;;;;;;;8.65;100.00;99456.97;5032839;28;19917;-81
2023/01/30 05:21:15;;;;;;;;;;;;;;;8.62;100.00;99440.78;5024367;28;19996;-81
2023/01/30 05:23:41;;;;;;;;;;;;;;;8.47;100.00;99431.00;5025679;28;19916;-83
2023/01/30 05:26:06;;;;;;;;;;;;;;;8.48;100.00;99439.69;5025551;28;19991;-83
2023/01/30 05:28:32;;;;;;;;;;;;;;;8.43;100.00;99453.28;5036321;28;19967;-83
2023/01/30 05:31:01;;;;;;;;;;;;;;;8.34;100.00;99436.78;5036136;28;19912;-82
2023/01/30 05:33:26;;;;;;;;;;;;;;;7.78;100.00;99450.69;5013662;28;19932;-83
2023/01/30 05:35:51;;;;;;;;;;;;;;;8.06;100.00;99439.84;5014189;28;19913;-82
2023/01/30 05:38:19;;;;;;;;;;;;;;;7.78;100.00;99445.44;5036215;28;19926;-83
2023/01/30 05:40:44;;;;;;;;;;;;;;;7.99;100.00;99447.53;5009006;28;20012;-83
2023/01/30 05:43:09;;;;;;;;;;;;;;;8.02;100.00;99459.44;5037171;28;19913;-83
2023/01/30 05:45:35;;;;;;;;;;;;;;;8.06;100.00;99468.59;5037173;28;19917;-82
2023/01/30 05:48:02;;;;;;;;;;;;;;;8.14;100.00;99465.97;5036007;28;19924;-82
2023/01/30 05:50:27;;;;;;;;;;;;;;;8.16;100.00;99468.41;5035743;28;19913;-81
2023/01/30 05:52:53;;;;;;;;;;;;;;;8.26;100.00;99469.03;5024831;28;20374;-84
2023/01/30 05:55:18;;;;;;;;;;;;;;;8.49;100.00;99475.31;5035074;28;19939;-82
2023/01/30 05:57:43;;;;;;;;;;;;;;;8.68;100.00;99482.78;5034113;28;19919;-82
2023/01/30 06:00:09;;;;;;;;;;;;;;;8.93;100.00;99497.53;5008668;28;20665;-82
2023/01/30 06:02:35;;;;;;;;;;;;;;;8.41;100.00;99497.91;5023645;28;19917;-81
2023/01/30 06:05:01;;;;;;;;;;;;;;;8.91;100.00;99512.59;5025301;28;19917;-81
2023/01/30 06:07:26;;;;;;;;;;;;;;;8.59;100.00;99509.16;5022842;28;19920;-82
2023/01/30 06:09:52;;;;;;;;;;;;;;;8.35;100.00;99524.75;5022726;28;19939;-81
2023/01/30 06:12:17;;;;;;;;;;;;;;;8.42;100.00;99545.81;5033239;28;20376;-82
2023/01/30 06:14:42;;;;;;;;;;;;;;;8.53;100.00;99532.38;5003477;28;19940;-82
2023/01/30 06:17:08;;;;;;;;;;;;;;;8.46;100.00;99520.94;5031767;28;19993;-82
2023/01/30 06:19:33;;;;;;;;;;;;;;;8.41;100.00;99518.81;5033857;28;19956;-81
2023/01/30 06:21:59;;;;;;;;;;;;;;;8.67;100.00;99502.09;5026864;28;20235;-81
2023/01/30 06:24:24;;;;;;;;;;;;;;;8.43;100.00;99511.63;5034171;28;19987;-83
2023/01/30 06:26:50;;;;;;;;;;;;;;;8.44;100.00;99502.00;5034070;28;20004;-83
2023/01/30 06:29:15;;;;;;;;;;;;;;;8.30;100.00;99495.66;5033894;28;19920;-84
2023/01/30 06:31:41;;;;;;;;;;;;;;;8.51;100.00;99517.88;5033713;28;21721;-83
2023/01/30 06:34:06;;;;;;;;;;;;;;;8.37;100.00;99507.06;5023128;28;19913;-82
2023/01/30 06:36:32;;;;;;;;;;;;;;;8.24;100.00;99522.47;5029689;28;19972;-84
2023/01/30 06:38:57;;;;;;;;;;;;;;;8.08;100.00;99524.16;5031773;28;19913;-83
2023/01/30 06:41:23;;;;;;;;;;;;;;;8.05;100.00;99527.06;5025847;28;20298;-82
2023/01/30 06:43:48;;;;;;;;;;;;;;;8.06;100.00;99513.06;5032997;28;19913;-84
2023/01/30 06:46:13;;;;;;;;;;;;;;;8.10;100.00;99511.72;5033941;28;19917;-82
2023/01/30 06:48:39;;;;;;;;;;;;;;;8.11;100.00;99497.69;5033142;28;19928;-81
2023/01/30 06:51:05;;;;;;;;;;;;;;;8.13;100.00;99508.78;5032501;28;20321;-85
2023/01/30 06:53:31;;;;;;;;;;;;;;;8.20;100.00;99506.31;5033500;28;19964;-84
2023/01/30 06:55:57;;;;;;;;;;;;;;;7.75;100.00;99511.13;5024696;28;19967;-83
2023/01/30 06:58:22;;;;;;;;;;;;;;;7.97;100.00;99548.00;5029302;28;19913;-83
2023/01/30 07:00:48;;;;;;;;;;;;;;;7.96;100.00;99521.06;5024480;28;20027;-84
2023/01/30 07:03:15;;;;;;;;;;;;;;;7.66;100.00;99499.03;5031368;28;19912;-81
2023/01/30 07:05:42;;;;;;;;;;;;;;;7.93;100.00;99502.28;5031354;28;20374;-82
2023/01/30 07:08:07;;;;;;;;;;;;;;;7.88;100.00;99486.28;5023725;28;20310;-80
2023/01/30 07:10:32;;;;;;;;;;;;;;;7.64;100.00;99490.53;5030340;28;19971;-80
2023/01/30 07:12:59;;;;;;;;;;;;;;;7.33;100.00;99523.34;5033263;28;19913;-82
2023/01/30 07:15:24;;;;;;;;;;;;;;;7.43;100.00;99495.28;5005392;28;20408;-82
2023/01/30 07:17:50;;;;;;;;;;;;;;;7.54;100.00;99490.69;5008226;28;19913;-82
2023/01/30 07:20:15;;;;;;;;;;;;;;;7.33;100.00;99499.03;5031541;28;20003;-80
2023/01/30 07:22:41;;;;;;;;;;;;;;;7.56;100.00;99493.97;5007385;28;19966;-80
2023/01/30 07:25:06;;;;;;;;;;;;;;;7.64;100.00;99488.75;5010959;28;19921;-82
2023/01/30 07:27:32;;;;;;;;;;;;;;;7.50;100.00;99494.63;5035965;28;19929;-84
2023/01/30 07:29:58;;;;;;;;;;;;;;;7.23;100.00;99509.63;5038614;28;19913;-88
2023/01/30 07:32:23;;;;;;;;;;;;;;;7.43;100.00;99524.00;5032463;28;19913;-88
2023/01/30 07:34:49;;;;;;;;;;;;;;;7.47;100.00;99550.63;5026233;28;20405;-84
2023/01/30 07:37:14;;;;;;;;;;;;;;;7.47;100.00;99544.56;5034119;28;19960;-85
2023/01/30 07:39:40;;;;;;;;;;;;;;;7.56;100.00;99548.81;5016752;28;19978;-83
2023/01/30 07:42:06;;;;;;;;;;;;;;;7.51;100.00;99557.16;5020277;28;20371;-83
2023/01/30 07:44:33;;;;;;;;;;;;;;;7.54;100.00;99542.94;5029907;28;19917;-83
2023/01/30 07:46:58;;;;;;;;;;;;;;;7.45;100.00;99538.69;5031413;28;20329;-85
2023/01/30 07:49:24;;;;;;;;;;;;;;;7.42;100.00;99547.66;5018183;28;19967;-84
2023/01/30 07:51:50;;;;;;;;;;;;;;;7.65;100.00;99552.25;5003258;28;19913;-83
2023/01/30 07:54:16;;;;;;;;;;;;;;;7.45;100.00;99565.63;5003097;28;20362;-83
2023/01/30 07:56:41;;;;;;;;;;;;;;;7.41;100.00;99559.09;5030474;28;19917;-84
2023/01/30 07:59:07;;;;;;;;;;;;;;;7.67;100.00;99558.16;5033146;28;19913;-82
2023/01/30 08:01:34;;;;;;;;;;;;;;;7.46;100.00;99550.78;5026755;28;19913;-83
2023/01/30 08:03:59;;;;;;;;;;;;;;;7.14;100.00;99610.59;5016323;28;19924;-83
2023/01/30 08:06:24;;;;;;;;;;;;;;;7.36;100.00;99541.28;5002820;28;20353;-84
2023/01/30 08:08:50;;;;;;;;;;;;;;;7.35;100.00;99550.09;5006419;28;19912;-80
2023/01/30 08:11:17;;;;;;;;;;;;;;;7.18;100.00;99559.69;5021509;28;20384;-82
2023/01/30 08:13:42;;;;;;;;;;;;;;;7.51;100.00;99554.56;5029998;28;19983;-81
2023/01/30 08:16:07;;;;;;;;;;;;;;;7.45;100.00;99570.03;5032679;28;20310;-82
2023/01/30 08:18:33;;;;;;;;;;;;;;;6.99;100.00;99556.38;5019889;28;19967;-80
2023/01/30 08:20:59;;;;;;;;;;;;;;;6.95;100.00;99555.06;5030716;28;19920;-80
2023/01/30 08:23:25;;;;;;;;;;;;;;;6.94;100.00;99599.59;5018479;28;19919;-82
2023/01/30 08:25:57;;;;;;;;;;;;;;;6.85;100.00;99590.91;5020329;28;20008;-79
2023/01/30 08:28:23;;;;;;;;;;;;;;;7.01;100.00;99611.06;5035211;28;19923;-81
2023/01/30 08:30:48;;;;;;;;;;;;;;;7.03;100.00;99614.31;5032339;28;19913;-82
2023/01/30 08:33:14;;;;;;;;;;;;;;;6.99;100.00;99600.75;5027038;28;19917;-81
2023/01/30 08:35:40;;;;;;;;;;;;;;;7.10;100.00;99609.28;5032402;28;19936;-83
2023/01/30 08:38:07;;;;;;;;;;;;;;;7.15;100.00;99626.09;5031060;28;19925;-82
2023/01/30 08:40:34;;;;;;;;;;;;;;;7.08;100.00;99619.09;5032024;28;19912;-83
2023/01/30 08:42:59;;;;;;;;;;;;;;;7.20;100.00;99622.22;5029316;28;19919;-82
2023/01/30 08:45:25;;;;;;;;;;;;;;;7.18;100.00;99632.81;5030449;28;20343;-81
2023/01/30 08:47:50;;;;;;;;;;;;;;;7.22;100.00;99617.66;5029331;28;19924;-81
2023/01/30 08:50:16;;;;;;;;;;;;;;;7.26;100.00;99604.09;5033029;28;19913;-81
2023/01/30 08:52:41;;;;;;;;;;;;;;;7.31;100.00;99631.56;5032900;28;20056;-82
2023/01/30 08:55:09;;;;;;;;;;;;;;;7.20;100.00;99645.72;5033795;28;20351;-82
2023/01/30 08:57:35;;;;;;;;;;;;;;;7.21;100.00;99642.13;5032380;28;19998;-81
2023/01/30 09:00:00;;;;;;;;;;;;;;;7.34;100.00;99637.25;5030775;28;19909;-79
2023/01/30 09:02:26;;;;;;;;;;;;;;;7.20;100.00;99637.88;5000159;28;19920;-81
2023/01/30 09:04:51;;;;;;;;;;;;;;;7.21;100.00;99663.81;5028272;28;19921;-80
2023/01/30 09:07:18;;;;;;;;;;;;;;;7.20;100.00;99674.44;5016731;28;19921;-83
2023/01/30 09:09:43;;;;;;;;;;;;;;;7.33;100.00;99674.00;5021413;28;19913;-83
2023/01/30 09:12:08;;;;;;;;;;;;;;;7.26;100.00;99671.19;5033704;28;20339;-80
2023/01/30 09:14:34;;;;;;;;;;;;;;;7.37;100.00;99662.25;5033436;28;19922;-83
2023/01/30 09:16:59;;;;;;;;;;;;;;;7.33;100.00;99660.94;5023823;28;19999;-83
2023/01/30 09:19:26;;;;;;;;;;;;;;;7.48;100.00;99661.97;5032988;28;20318;-82
2023/01/30 09:21:52;;;;;;;;;;;;;;;7.34;100.00;99666.00;5033121;28;19917;-82
2023/01/30 09:24:18;;;;;;;;;;;;;;;7.41;100.00;99658.34;5029412;28;19987;-83
2023/01/30 09:26:44;;;;;;;;;;;;;;;7.47;100.00;99652.50;5009214;28;19913;-82
2023/01/30 09:29:13;;;;;;;;;;;;;;;7.34;100.00;99646.91;5031392;28;19920;-82
2023/01/30 09:31:39;;;;;;;;;;;;;;;7.24;100.00;99663.50;5032424;28;19921;-82
2023/01/30 09:34:05;;;;;;;;;;;;;;;7.27;100.00;99659.78;5031956;28;19959;-82
2023/01/30 09:36:31;;;;;;;;;;;;;;;7.49;100.00;99629.66;5022344;28;19925;-82
2023/01/30 09:38:56;;;;;;;;;;;;;;;7.57;100.00;99629.66;5014150;28;19921;-81
2023/01/30 09:41:28;;;;;;;;;;;;;;;7.45;100.00;99649.22;5027632;28;19945;-81
2023/01/30 09:44:06;;;;;;;;;;;;;;;7.57;100.00;99634.88;5020903;28;19920;-82
2023/01/30 09:46:38;;;;;;;;;;;;;;;7.53;100.00;99635.34;5020374;28;19967;-81
2023/01/30 09:49:03;;;;;;;;;;;;;;;7.69;100.00;99642.44;5032395;28;19913;-82
2023/01/30 09:51:45;;;;;;;;;;;;;;;7.57;100.00;99642.72;5014237;28;20240;-81
2023/01/30 09:54:23;;;;;;;;;;;;;;;7.75;100.00;99618.25;5027157;28;19913;-80
2023/01/30 09:57:09;;;;;;;;;;;;;;;7.73;100.00;99620.22;5025672;28;19963;-80
2023/01/30 09:59:41;;;;;;;;;;;;;;;7.63;100.00;99612.53;5026713;28;19921;-79
2023/01/30 10:02:08;;;;;;;;;;;;;;;7.60;100.00;99649.44;5029270;28;20270;-80
2023/01/30 10:04:35;;;;;;;;;;;;;;;7.62;100.00;99630.97;5020598;28;19924;-79
2023/01/30 10:07:07;;;;;;;;;;;;;;;7.57;100.00;99662.81;5029844;28;19953;-81
2023/01/30 10:09:35;;;;;;;;;;;;;;;7.71;100.00;99695.34;5031284;28;19920;-80
2023/01/30 10:12:21;;;;;;;;;;;;;;;7.58;100.00;99670.47;5023256;28;20408;-80
2023/01/30 10:14:48;;;;;;;;;;;;;;;7.66;100.00;99677.53;4984015;28;19920;-79
2023/01/30 10:17:33;;;;;;;;;;;;;;;7.81;100.00;99675.09;5032676;28;19921;-80
2023/01/30 10:20:12;;;;;;;;;;;;;;;8.08;100.00;99678.41;5031332;28;19927;-80
2023/01/30 10:22:40;;;;;;;;;;;;;;;8.00;100.00;99670.56;5024642;28;19917;-80
2023/01/30 10:25:13;;;;;;;;;;;;;;;8.14;100.00;99679.53;5019164;28;19925;-80
2023/01/30 10:27:49;;;;;;;;;;;;;;;7.94;100.00;99681.66;5033116;28;20358;-80
2023/01/30 10:30:15;;;;;;;;;;;;;;;7.96;100.00;99687.56;5027571;28;19921;-80
2023/01/30 10:32:43;;;;;;;;;;;;;;;8.13;100.00;99697.03;5030028;28;19959;-80
2023/01/30 10:35:14;;;;;;;;;;;;;;;7.95;100.00;99691.94;5028886;28;19912;-79
2023/01/30 10:37:49;;;;;;;;;;;;;;;8.01;100.00;99706.19;5014319;28;20424;-79
2023/01/30 10:40:18;;;;;;;;;;;;;;;7.82;100.00;99741.28;5025706;28;19963;-79
2023/01/30 10:42:46;;;;;;;;;;;;;;;8.20;100.00;99717.31;5030508;28;19913;-79
2023/01/30 10:45:14;;;;;;;;;;;;;;;7.87;100.00;99723.31;5014283;28;19917;-79
2023/01/30 10:47:42;;;;;;;;;;;;;;;8.23;100.00;99727.44;5016122;28;19917;-79
2023/01/30 10:50:16;;;;;;;;;;;;;;;8.38;100.00;99723.22;5012248;28;20007;-79
2023/01/30 10:52:42;;;;;;;;;;;;;;;8.52;100.00;99749.75;5026582;28;20418;-79
2023/01/30 10:55:17;;;;;;;;;;;;;;;8.42;100.00;99766.38;5029104;28;19931;-80
2023/01/30 10:57:43;;;;;;;;;;;;;;;8.04;100.00;99758.13;5014552;28;20367;-79
2023/01/30 11:00:31;;;;;;;;;;;;;;;8.18;100.00;99776.81;5030772;28;19915;-80
2023/01/30 11:03:00;;;;;;;;;;;;;;;8.19;100.00;99765.38;5021322;28;19925;-79
2023/01/30 11:05:51;;;;;;;;;;;;;;;8.15;100.00;99791.84;5011147;28;19931;-80
2023/01/30 11:08:32;;;;;;;;;;;;;;;8.03;100.00;99793.09;5026241;28;19967;-79
2023/01/30 11:10:58;;;;;;;;;;;;;;;8.22;100.00;99791.19;5002471;28;19913;-80
2023/01/30 11:13:29;;;;;;;;;;;;;;;8.38;100.00;99806.13;5029540;28;19917;-80
2023/01/30 11:15:55;;;;;;;;;;;;;;;8.64;100.00;99798.13;5027416;28;19917;-79
2023/01/30 11:18:21;;;;;;;;;;;;;;;8.73;100.00;99790.31;5029047;28;19916;-80
2023/01/30 11:20:56;;;;;;;;;;;;;;;8.53;100.00;99778.34;5017939;28;19949;-79
2023/01/30 11:23:33;;;;;;;;;;;;;;;8.59;100.00;99782.13;5014346;28;19968;-80
2023/01/30 11:26:04;;;;;;;;;;;;;;;8.61;100.00;99795.84;5021124;28;20371;-80
2023/01/30 11:28:34;;;;;;;;;;;;;;;8.82;100.00;99778.84;5015865;28;19940;-81
2023/01/30 11:31:00;;;;;;;;;;;;;;;8.86;100.00;99794.06;5029098;28;19952;-79
2023/01/30 11:33:35;;;;;;;;;;;;;;;8.90;100.00;99778.03;5027796;28;19924;-80
2023/01/30 11:36:02;;;;;;;;;;;;;;;8.69;100.00;99776.72;5016839;28;19921;-79
2023/01/30 11:38:29;;;;;;;;;;;;;;;8.72;100.00;99765.91;5014008;28;19936;-80
2023/01/30 11:41:16;;;;;;;;;;;;;;;8.85;100.00;99766.25;5027527;28;19923;-79
2023/01/30 11:43:42;;;;;;;;;;;;;;;8.81;100.00;99766.72;5030346;28;19963;-80
2023/01/30 11:46:09;;;;;;;;;;;;;;;8.83;100.00;99778.69;5029812;28;19917;-80
2023/01/30 11:48:40;;;;;;;;;;;;;;;8.79;100.00;99781.78;5018894;28;19913;-80
2023/01/30 11:51:06;;;;;;;;;;;;;;;8.68;100.00;99786.38;5017726;28;19956;-80
2023/01/30 11:53:45;;;;;;;;;;;;;;;8.76;100.00;99795.22;5030306;28;19913;-81
2023/01/30 11:56:18;;;;;;;;;;;;;;;8.55;100.00;99804.38;5029204;28;20008;-79
2023/01/30 11:58:48;;;;;;;;;;;;;;;8.55;100.00;99801.75;5016626;28;20192;-79
2023/01/30 12:01:16;;;;;;;;;;;;;;;8.78;100.00;99827.28;5013368;28;20294;-79
2023/01/30 12:03:47;;;;;;;;;;;;;;;9.06;100.00;99785.84;5023883;28;19913;-76
2023/01/30 12:06:20;;;;;;;;;;;;;;;9.16;100.00;99793.53;5029450;28;20354;-78
2023/01/30 12:08:49;;;;;;;;;;;;;;;8.92;100.00;99797.81;5020555;28;20370;-80
2023/01/30 12:11:30;;;;;;;;;;;;;;;8.95;100.00;99797.50;5030311;28;19936;-79
2023/01/30 12:14:05;;;;;;;;;;;;;;;8.92;100.00;99799.63;5029532;28;19917;-78
2023/01/30 12:16:31;;;;;;;;;;;;;;;9.03;100.00;99788.81;5003044;28;19917;-80
2023/01/30 12:19:04;;;;;;;;;;;;;;;9.03;100.00;99782.75;5006438;28;20382;-80
2023/01/30 12:21:41;;;;;;;;;;;;;;;9.29;100.00;99788.59;5022183;28;19919;-79
2023/01/30 12:24:16;;;;;;;;;;;;;;;9.26;100.00;99794.19;5002263;28;19968;-78
2023/01/30 12:48:07;;;;;;;24.98;3.92;;;;;;;9.53;100.00;99820.97;5053114;27;1493907;-82
2023/01/30 12:50:46;;;;;;;28.60;4.85;;;;;;;9.38;100.00;99801.69;5070780;28;20063;-79
2023/01/30 12:53:48;;;;;;;19.15;4.03;;;;;;;9.44;100.00;99845.56;5070212;28;20127;-80
2023/01/30 12:56:34;;;;;;;23.05;3.92;;;;;;;9.78;100.00;99807.75;5069746;28;20032;-80
2023/01/30 12:59:06;;;;;;;21.35;4.05;;;;;;;9.29;100.00;99835.75;5086002;28;20112;-81
2023/01/30 13:01:44;;;;;;;20.77;4.15;;;;;;;9.00;100.00;99837.09;5067708;28;20494;-80
2023/01/30 13:04:21;;;;;;;22.90;4.60;;;;;;;9.26;100.00;99846.59;5079891;28;20126;-78
2023/01/30 13:07:08;;;;;;;15.93;3.95;;;;;;;9.65;100.00;99841.59;5068073;28;20039;-80
2023/01/30 13:10:20;;;;;;;29.75;4.93;;;;;;;9.50;100.00;99841.44;5087213;28;20515;-79
2023/01/30 13:13:04;;;;;;;18.13;4.25;;;;;;;9.49;100.00;99845.88;5068950;28;20099;-78
2023/01/30 13:18:08;;;;;;;18.00;4.18;;;;;;;10.64;100.00;99846.38;5081529;28;20698;-80
2023/01/30 13:20:58;;;;;;;40.35;10.40;;;;;;;11.07;100.00;99843.22;5079157;28;20040;-79
2023/01/30 13:23:26;;;;;;;19.50;4.93;;;;;;;10.43;100.00;99844.38;5081111;28;20106;-79
2023/01/30 13:25:52;;;;;;;18.25;4.65;;;;;;;10.08;100.00;99854.34;5078376;28;20085;-79